Aérodrome :
LOGIN :

S'inscrire | Disclaimer

   EN    FR    IT 

 










Légende :    VFR   VFR Marginal   IFR   IFR Intensif   IFR Très Intensif
Visi : 
Plafond : 
>= 8 km
>= 3000ft
5 à 8 km
1000 à 3000 ft
1500m à 5 km
500 à 1000 ft
800 à 1500m
200 à 500 ft
< 800m
< 200 ft
Symboles :   Orages  Brouillard  Fortes neiges  Fortes précipitations  Vent > 20 kt
SIGMETs :   Divers  Orages  Givrage  Turbulence  Onde Orograph.  Cendres Volcan.







- Altitude de l'aérodrome : 297 ft
- Code IATA : UIP
- Voir les cartes d'approche


LFRQ - Quimper Pluguffan

DERNIER METAR :
  • 160730Z AUTO 23005KT 9999 BKN005 BKN024 OVC034 17/17 Q1017 TEMPO 4000 RADZ

METARs EXPIRÉS :
  • 160700Z AUTO 23004KT 180V260 6000 OVC004 17/16 Q1017 TEMPO 4000 RADZ
  • 160630Z AUTO 23004KT 9999 BKN004 OVC020 17/16 Q1017 BECMG 4000 RADZ
  • 160600Z AUTO 24005KT 9999 OVC004 16/16 Q1017 BECMG 4000 RADZ
  • 160530Z AUTO VRB03KT 4100 -RADZ BR OVC003 16/16 Q1017 BECMG RADZ
  • 160500Z AUTO 24004KT 5000 BR OVC009 16/15 Q1017

TAF AMD TAF LFRQ
Valide du 16 à 06h jusqu'au 17 à 06h UTC


160635Z 1606/1706 23008KT 9999 BKN005 OVC020
TEMPO 1606/1614 4000 RADZ OVC003
BECMG 1614/1616 32012KT 9999 NSW SCT016
Pas de NOTAMs connus pour ce terrain.



MET'MAP, la Météo Aéronautique d'un coup d'oeil ! - Copyright ORBIFLY Décembre 2007 - Disclaimer

ORBIFLY MET'MAP TEAM :

Programmation & Développement : Alexandra Zaïnal
Conception & Développement : Baudouin d'Aumeries
Co-Programmation & Développement : Marc-Olivier Méhu
Soutien technique & logistique : Manuel Goepfert

Contact : metmap@orbifly.com




SOURCES & CREDITS :

   NOAA